sensor_id;sensor_type;location;lat;lon;timestamp;temperature;humidity
70267;DHT22;57676;43.856;1.926;2022-09-01T00:01:51;21.90;99.90
70267;DHT22;57676;43.856;1.926;2022-09-01T00:04:20;21.90;99.90
70267;DHT22;57676;43.856;1.926;2022-09-01T00:06:47;21.90;99.90
70267;DHT22;57676;43.856;1.926;2022-09-01T00:09:16;21.90;99.90
70267;DHT22;57676;43.856;1.926;2022-09-01T00:11:45;21.90;99.90
70267;DHT22;57676;43.856;1.926;2022-09-01T00:14:12;21.80;99.90
70267;DHT22;57676;43.856;1.926;2022-09-01T00:16:38;21.80;99.90
70267;DHT22;57676;43.856;1.926;2022-09-01T00:19:05;21.80;99.90
70267;DHT22;57676;43.856;1.926;2022-09-01T00:21:35;21.80;99.90
70267;DHT22;57676;43.856;1.926;2022-09-01T00:24:01;21.70;99.90
70267;DHT22;57676;43.856;1.926;2022-09-01T00:26:28;21.80;99.90
70267;DHT22;57676;43.856;1.926;2022-09-01T00:28:54;21.70;99.90
70267;DHT22;57676;43.856;1.926;2022-09-01T00:31:20;21.70;99.90
70267;DHT22;57676;43.856;1.926;2022-09-01T00:33:48;21.60;99.90
70267;DHT22;57676;43.856;1.926;2022-09-01T00:36:15;21.60;99.90
70267;DHT22;57676;43.856;1.926;2022-09-01T00:38:41;21.60;99.90
70267;DHT22;57676;43.856;1.926;2022-09-01T00:41:07;21.60;99.90
70267;DHT22;57676;43.856;1.926;2022-09-01T00:43:56;21.60;99.90
70267;DHT22;57676;43.856;1.926;2022-09-01T00:46:28;21.50;99.90
70267;DHT22;57676;43.856;1.926;2022-09-01T00:49:00;21.50;99.90
70267;DHT22;57676;43.856;1.926;2022-09-01T00:51:27;21.50;99.90
70267;DHT22;57676;43.856;1.926;2022-09-01T00:53:53;21.40;99.90
70267;DHT22;57676;43.856;1.926;2022-09-01T00:56:22;21.40;99.90
70267;DHT22;57676;43.856;1.926;2022-09-01T00:58:49;21.40;99.90
70267;DHT22;57676;43.856;1.926;2022-09-01T01:01:16;21.40;99.90
70267;DHT22;57676;43.856;1.926;2022-09-01T01:03:42;21.30;99.90
70267;DHT22;57676;43.856;1.926;2022-09-01T01:06:13;21.30;99.90
70267;DHT22;57676;43.856;1.926;2022-09-01T01:08:47;21.30;99.90
70267;DHT22;57676;43.856;1.926;2022-09-01T01:11:24;21.30;99.90
70267;DHT22;57676;43.856;1.926;2022-09-01T01:13:57;21.20;99.90
70267;DHT22;57676;43.856;1.926;2022-09-01T01:16:25;21.20;99.90
70267;DHT22;57676;43.856;1.926;2022-09-01T01:18:52;21.10;99.90
70267;DHT22;57676;43.856;1.926;2022-09-01T01:21:29;21.10;99.90
70267;DHT22;57676;43.856;1.926;2022-09-01T01:24:32;21.10;99.90
70267;DHT22;57676;43.856;1.926;2022-09-01T01:27:00;21.10;99.90
70267;DHT22;57676;43.856;1.926;2022-09-01T01:29:30;21.00;99.90
70267;DHT22;57676;43.856;1.926;2022-09-01T01:31:57;21.00;99.90
70267;DHT22;57676;43.856;1.926;2022-09-01T01:34:22;21.00;99.90
70267;DHT22;57676;43.856;1.926;2022-09-01T01:36:49;21.00;99.90
70267;DHT22;57676;43.856;1.926;2022-09-01T01:39:19;21.00;99.90
70267;DHT22;57676;43.856;1.926;2022-09-01T01:41:46;21.00;99.90
70267;DHT22;57676;43.856;1.926;2022-09-01T01:44:16;20.90;99.90
70267;DHT22;57676;43.856;1.926;2022-09-01T01:46:47;20.90;99.90
70267;DHT22;57676;43.856;1.926;2022-09-01T01:49:16;20.90;99.90
70267;DHT22;57676;43.856;1.926;2022-09-01T01:51:45;20.80;99.90
70267;DHT22;57676;43.856;1.926;2022-09-01T01:54:12;20.80;99.90
70267;DHT22;57676;43.856;1.926;2022-09-01T01:56:39;20.70;99.90
70267;DHT22;57676;43.856;1.926;2022-09-01T01:59:07;20.70;99.90
70267;DHT22;57676;43.856;1.926;2022-09-01T02:01:38;20.70;99.90
70267;DHT22;57676;43.856;1.926;2022-09-01T02:04:04;20.70;99.90
70267;DHT22;57676;43.856;1.926;2022-09-01T02:06:33;20.60;99.90
70267;DHT22;57676;43.856;1.926;2022-09-01T02:08:59;20.60;99.90
70267;DHT22;57676;43.856;1.926;2022-09-01T02:11:28;20.60;99.90
70267;DHT22;57676;43.856;1.926;2022-09-01T02:13:55;20.50;99.90
70267;DHT22;57676;43.856;1.926;2022-09-01T02:16:24;20.40;99.90
70267;DHT22;57676;43.856;1.926;2022-09-01T02:18:50;20.40;99.90
70267;DHT22;57676;43.856;1.926;2022-09-01T02:21:19;20.40;99.90
70267;DHT22;57676;43.856;1.926;2022-09-01T02:23:49;20.30;99.90
70267;DHT22;57676;43.856;1.926;2022-09-01T02:26:16;20.30;99.90
70267;DHT22;57676;43.856;1.926;2022-09-01T02:28:45;20.30;99.90
70267;DHT22;57676;43.856;1.926;2022-09-01T02:31:14;20.20;99.90
70267;DHT22;57676;43.856;1.926;2022-09-01T02:33:42;20.10;99.90
70267;DHT22;57676;43.856;1.926;2022-09-01T02:36:14;20.10;99.90
70267;DHT22;57676;43.856;1.926;2022-09-01T02:38:41;20.10;99.90
70267;DHT22;57676;43.856;1.926;2022-09-01T02:41:09;20.00;99.90
70267;DHT22;57676;43.856;1.926;2022-09-01T02:43:36;20.00;99.90
70267;DHT22;57676;43.856;1.926;2022-09-01T02:46:04;19.90;99.90
70267;DHT22;57676;43.856;1.926;2022-09-01T02:48:34;19.90;99.90
70267;DHT22;57676;43.856;1.926;2022-09-01T02:51:03;19.90;99.90
70267;DHT22;57676;43.856;1.926;2022-09-01T02:53:30;19.90;99.90
70267;DHT22;57676;43.856;1.926;2022-09-01T02:55:57;19.90;99.90
70267;DHT22;57676;43.856;1.926;2022-09-01T02:58:26;20.00;99.90
70267;DHT22;57676;43.856;1.926;2022-09-01T03:00:53;20.00;99.90
70267;DHT22;57676;43.856;1.926;2022-09-01T03:03:19;20.20;99.90
70267;DHT22;57676;43.856;1.926;2022-09-01T03:05:46;20.20;99.90
70267;DHT22;57676;43.856;1.926;2022-09-01T03:08:13;20.20;99.90
70267;DHT22;57676;43.856;1.926;2022-09-01T03:10:42;20.30;99.90
70267;DHT22;57676;43.856;1.926;2022-09-01T03:13:14;20.30;99.90
70267;DHT22;57676;43.856;1.926;2022-09-01T03:15:42;20.40;99.90
70267;DHT22;57676;43.856;1.926;2022-09-01T03:18:09;20.40;99.90
70267;DHT22;57676;43.856;1.926;2022-09-01T03:20:37;20.40;99.90
70267;DHT22;57676;43.856;1.926;2022-09-01T03:23:07;20.40;99.90
70267;DHT22;57676;43.856;1.926;2022-09-01T03:25:34;20.40;99.90
70267;DHT22;57676;43.856;1.926;2022-09-01T03:28:02;20.50;99.90
70267;DHT22;57676;43.856;1.926;2022-09-01T03:30:29;20.50;99.90
70267;DHT22;57676;43.856;1.926;2022-09-01T03:32:56;20.50;99.90
70267;DHT22;57676;43.856;1.926;2022-09-01T03:35:24;20.50;99.90
70267;DHT22;57676;43.856;1.926;2022-09-01T03:37:50;20.50;99.90
70267;DHT22;57676;43.856;1.926;2022-09-01T03:40:17;20.50;99.90
70267;DHT22;57676;43.856;1.926;2022-09-01T03:42:44;20.50;99.90
70267;DHT22;57676;43.856;1.926;2022-09-01T03:45:11;20.50;99.90
70267;DHT22;57676;43.856;1.926;2022-09-01T03:47:41;20.60;99.90
70267;DHT22;57676;43.856;1.926;2022-09-01T03:50:10;20.50;99.90
70267;DHT22;57676;43.856;1.926;2022-09-01T03:52:46;20.60;99.90
70267;DHT22;57676;43.856;1.926;2022-09-01T03:55:15;20.60;99.90
70267;DHT22;57676;43.856;1.926;2022-09-01T03:57:49;20.50;99.90
70267;DHT22;57676;43.856;1.926;2022-09-01T04:00:17;20.50;99.90
70267;DHT22;57676;43.856;1.926;2022-09-01T04:02:49;20.60;99.90
70267;DHT22;57676;43.856;1.926;2022-09-01T04:05:17;20.50;99.90
70267;DHT22;57676;43.856;1.926;2022-09-01T04:07:47;20.60;99.90
70267;DHT22;57676;43.856;1.926;2022-09-01T04:10:13;20.50;99.90
70267;DHT22;57676;43.856;1.926;2022-09-01T04:12:40;20.50;99.90
70267;DHT22;57676;43.856;1.926;2022-09-01T04:15:06;20.60;99.90
70267;DHT22;57676;43.856;1.926;2022-09-01T04:17:33;20.50;99.90
70267;DHT22;57676;43.856;1.926;2022-09-01T04:20:20;20.40;99.90
70267;DHT22;57676;43.856;1.926;2022-09-01T04:22:46;20.50;99.90
70267;DHT22;57676;43.856;1.926;2022-09-01T04:25:15;20.50;99.90
70267;DHT22;57676;43.856;1.926;2022-09-01T04:27:41;20.50;99.90
70267;DHT22;57676;43.856;1.926;2022-09-01T04:30:10;20.50;99.90
70267;DHT22;57676;43.856;1.926;2022-09-01T04:32:36;20.50;99.90
70267;DHT22;57676;43.856;1.926;2022-09-01T04:35:04;20.50;99.90
70267;DHT22;57676;43.856;1.926;2022-09-01T04:37:30;20.50;99.90
70267;DHT22;57676;43.856;1.926;2022-09-01T04:39:56;20.50;99.90
70267;DHT22;57676;43.856;1.926;2022-09-01T04:42:23;20.50;99.90
70267;DHT22;57676;43.856;1.926;2022-09-01T04:44:51;20.40;99.90
70267;DHT22;57676;43.856;1.926;2022-09-01T04:47:18;20.40;99.90
70267;DHT22;57676;43.856;1.926;2022-09-01T04:49:55;20.40;99.90
70267;DHT22;57676;43.856;1.926;2022-09-01T04:52:24;20.50;99.90
70267;DHT22;57676;43.856;1.926;2022-09-01T04:54:50;20.50;99.90
70267;DHT22;57676;43.856;1.926;2022-09-01T04:57:15;20.40;99.90
70267;DHT22;57676;43.856;1.926;2022-09-01T04:59:41;20.50;99.90
70267;DHT22;57676;43.856;1.926;2022-09-01T05:02:08;20.50;99.90
70267;DHT22;57676;43.856;1.926;2022-09-01T05:04:35;20.40;99.90
70267;DHT22;57676;43.856;1.926;2022-09-01T05:07:03;20.40;99.90
70267;DHT22;57676;43.856;1.926;2022-09-01T05:09:32;20.40;99.90
70267;DHT22;57676;43.856;1.926;2022-09-01T05:12:01;20.50;99.90
70267;DHT22;57676;43.856;1.926;2022-09-01T05:14:38;20.50;99.90
70267;DHT22;57676;43.856;1.926;2022-09-01T05:17:08;20.40;99.90
70267;DHT22;57676;43.856;1.926;2022-09-01T05:19:37;20.40;99.90
70267;DHT22;57676;43.856;1.926;2022-09-01T05:22:03;20.40;99.90
70267;DHT22;57676;43.856;1.926;2022-09-01T05:24:29;20.40;99.90
70267;DHT22;57676;43.856;1.926;2022-09-01T05:26:57;20.50;99.90
70267;DHT22;57676;43.856;1.926;2022-09-01T05:29:25;20.40;99.90
70267;DHT22;57676;43.856;1.926;2022-09-01T05:31:53;20.50;99.90
70267;DHT22;57676;43.856;1.926;2022-09-01T05:34:20;20.50;99.90
70267;DHT22;57676;43.856;1.926;2022-09-01T05:36:53;20.40;99.90
70267;DHT22;57676;43.856;1.926;2022-09-01T05:39:20;20.50;99.90
70267;DHT22;57676;43.856;1.926;2022-09-01T05:41:46;20.50;99.90
70267;DHT22;57676;43.856;1.926;2022-09-01T05:44:13;20.50;99.90
70267;DHT22;57676;43.856;1.926;2022-09-01T05:46:41;20.50;99.90
70267;DHT22;57676;43.856;1.926;2022-09-01T05:49:10;20.50;99.90
70267;DHT22;57676;43.856;1.926;2022-09-01T05:51:41;20.50;99.90
70267;DHT22;57676;43.856;1.926;2022-09-01T05:54:07;20.60;99.90
70267;DHT22;57676;43.856;1.926;2022-09-01T05:56:36;20.50;99.90
70267;DHT22;57676;43.856;1.926;2022-09-01T05:59:06;20.50;99.90
70267;DHT22;57676;43.856;1.926;2022-09-01T06:01:32;20.60;99.90
70267;DHT22;57676;43.856;1.926;2022-09-01T06:04:00;20.60;99.90
70267;DHT22;57676;43.856;1.926;2022-09-01T06:06:33;20.60;99.90
70267;DHT22;57676;43.856;1.926;2022-09-01T06:09:04;20.60;99.90
70267;DHT22;57676;43.856;1.926;2022-09-01T06:11:30;20.70;99.90
70267;DHT22;57676;43.856;1.926;2022-09-01T06:13:58;20.70;99.90
70267;DHT22;57676;43.856;1.926;2022-09-01T06:16:25;20.60;99.90
70267;DHT22;57676;43.856;1.926;2022-09-01T06:18:52;20.70;99.90
70267;DHT22;57676;43.856;1.926;2022-09-01T06:21:19;20.70;99.90
70267;DHT22;57676;43.856;1.926;2022-09-01T06:23:46;20.70;99.90
70267;DHT22;57676;43.856;1.926;2022-09-01T06:26:20;20.70;99.90
70267;DHT22;57676;43.856;1.926;2022-09-01T06:28:48;20.70;99.90
70267;DHT22;57676;43.856;1.926;2022-09-01T06:31:22;20.80;99.90
70267;DHT22;57676;43.856;1.926;2022-09-01T06:33:51;20.80;99.90
70267;DHT22;57676;43.856;1.926;2022-09-01T06:36:19;20.90;99.90
70267;DHT22;57676;43.856;1.926;2022-09-01T06:38:47;20.90;99.90
70267;DHT22;57676;43.856;1.926;2022-09-01T06:41:14;20.90;99.90
70267;DHT22;57676;43.856;1.926;2022-09-01T06:43:42;21.00;99.90
70267;DHT22;57676;43.856;1.926;2022-09-01T06:46:09;21.00;99.90
70267;DHT22;57676;43.856;1.926;2022-09-01T06:48:36;21.00;99.90
70267;DHT22;57676;43.856;1.926;2022-09-01T06:51:04;21.00;99.90
70267;DHT22;57676;43.856;1.926;2022-09-01T06:53:31;21.10;99.90
70267;DHT22;57676;43.856;1.926;2022-09-01T06:55:59;21.10;99.90
70267;DHT22;57676;43.856;1.926;2022-09-01T06:58:24;21.10;99.90
70267;DHT22;57676;43.856;1.926;2022-09-01T07:00:51;21.20;99.90
70267;DHT22;57676;43.856;1.926;2022-09-01T07:03:17;21.20;99.90
70267;DHT22;57676;43.856;1.926;2022-09-01T07:05:46;21.20;99.90
70267;DHT22;57676;43.856;1.926;2022-09-01T07:08:14;21.20;99.90
70267;DHT22;57676;43.856;1.926;2022-09-01T07:10:47;21.20;99.90
70267;DHT22;57676;43.856;1.926;2022-09-01T07:13:18;21.10;99.90
70267;DHT22;57676;43.856;1.926;2022-09-01T07:15:50;21.00;99.90
70267;DHT22;57676;43.856;1.926;2022-09-01T07:18:18;21.10;99.90
70267;DHT22;57676;43.856;1.926;2022-09-01T07:20:46;21.00;99.90
70267;DHT22;57676;43.856;1.926;2022-09-01T07:23:14;21.10;99.90
70267;DHT22;57676;43.856;1.926;2022-09-01T07:25:44;21.20;99.90
70267;DHT22;57676;43.856;1.926;2022-09-01T07:28:11;21.30;99.90
70267;DHT22;57676;43.856;1.926;2022-09-01T07:30:41;21.40;99.90
70267;DHT22;57676;43.856;1.926;2022-09-01T07:33:08;21.50;99.90
70267;DHT22;57676;43.856;1.926;2022-09-01T07:35:37;21.60;99.90
70267;DHT22;57676;43.856;1.926;2022-09-01T07:38:05;21.50;99.90
70267;DHT22;57676;43.856;1.926;2022-09-01T07:40:36;21.50;99.90
70267;DHT22;57676;43.856;1.926;2022-09-01T07:43:06;21.50;99.90
70267;DHT22;57676;43.856;1.926;2022-09-01T07:45:35;21.60;99.90
70267;DHT22;57676;43.856;1.926;2022-09-01T07:48:05;21.60;99.90
70267;DHT22;57676;43.856;1.926;2022-09-01T07:50:33;21.70;99.90
70267;DHT22;57676;43.856;1.926;2022-09-01T07:52:59;21.80;99.90
70267;DHT22;57676;43.856;1.926;2022-09-01T07:55:26;21.80;99.90
70267;DHT22;57676;43.856;1.926;2022-09-01T07:57:52;21.90;99.90
70267;DHT22;57676;43.856;1.926;2022-09-01T08:00:19;22.10;99.90
70267;DHT22;57676;43.856;1.926;2022-09-01T08:02:46;22.20;99.90
70267;DHT22;57676;43.856;1.926;2022-09-01T08:05:14;22.40;99.90
70267;DHT22;57676;43.856;1.926;2022-09-01T08:07:42;22.50;99.90
70267;DHT22;57676;43.856;1.926;2022-09-01T08:10:08;22.50;99.90
70267;DHT22;57676;43.856;1.926;2022-09-01T08:12:36;22.50;99.90
70267;DHT22;57676;43.856;1.926;2022-09-01T08:15:04;22.70;99.90
70267;DHT22;57676;43.856;1.926;2022-09-01T08:17:30;22.90;99.90
70267;DHT22;57676;43.856;1.926;2022-09-01T08:19:56;23.00;99.90
70267;DHT22;57676;43.856;1.926;2022-09-01T08:22:22;22.90;99.90
70267;DHT22;57676;43.856;1.926;2022-09-01T08:24:51;22.90;99.90
70267;DHT22;57676;43.856;1.926;2022-09-01T08:27:17;23.10;99.90
70267;DHT22;57676;43.856;1.926;2022-09-01T08:29:43;23.20;99.90
70267;DHT22;57676;43.856;1.926;2022-09-01T08:32:09;23.40;99.90
70267;DHT22;57676;43.856;1.926;2022-09-01T08:34:37;23.50;99.10
70267;DHT22;57676;43.856;1.926;2022-09-01T08:37:05;23.40;98.90
70267;DHT22;57676;43.856;1.926;2022-09-01T08:39:31;23.50;98.70
70267;DHT22;57676;43.856;1.926;2022-09-01T08:42:08;23.60;98.30
70267;DHT22;57676;43.856;1.926;2022-09-01T08:44:47;23.40;98.70
70267;DHT22;57676;43.856;1.926;2022-09-01T08:47:17;23.30;98.90
70267;DHT22;57676;43.856;1.926;2022-09-01T08:49:44;23.20;99.00
70267;DHT22;57676;43.856;1.926;2022-09-01T08:52:32;23.20;98.90
70267;DHT22;57676;43.856;1.926;2022-09-01T08:55:08;23.20;99.20
70267;DHT22;57676;43.856;1.926;2022-09-01T08:57:39;23.10;99.00
70267;DHT22;57676;43.856;1.926;2022-09-01T09:00:08;23.10;99.50
70267;DHT22;57676;43.856;1.926;2022-09-01T09:02:50;23.10;99.60
70267;DHT22;57676;43.856;1.926;2022-09-01T09:05:42;23.30;99.00
70267;DHT22;57676;43.856;1.926;2022-09-01T09:14:14;23.50;98.50
70267;DHT22;57676;43.856;1.926;2022-09-01T09:16:47;23.60;98.20
70267;DHT22;57676;43.856;1.926;2022-09-01T09:19:19;23.70;97.80
70267;DHT22;57676;43.856;1.926;2022-09-01T09:21:47;23.90;97.70
70267;DHT22;57676;43.856;1.926;2022-09-01T09:27:35;24.10;96.70
70267;DHT22;57676;43.856;1.926;2022-09-01T09:30:22;24.20;96.30
70267;DHT22;57676;43.856;1.926;2022-09-01T09:33:08;24.30;96.10
70267;DHT22;57676;43.856;1.926;2022-09-01T09:35:41;24.00;95.70
70267;DHT22;57676;43.856;1.926;2022-09-01T09:38:27;24.00;96.30
70267;DHT22;57676;43.856;1.926;2022-09-01T09:41:15;24.00;95.90
70267;DHT22;57676;43.856;1.926;2022-09-01T09:43:47;23.80;96.40
70267;DHT22;57676;43.856;1.926;2022-09-01T09:46:35;23.60;96.70
70267;DHT22;57676;43.856;1.926;2022-09-01T09:49:21;23.60;97.00
70267;DHT22;57676;43.856;1.926;2022-09-01T09:51:55;23.60;96.90
70267;DHT22;57676;43.856;1.926;2022-09-01T09:54:30;23.50;97.10
70267;DHT22;57676;43.856;1.926;2022-09-01T09:57:16;23.60;97.20
70267;DHT22;57676;43.856;1.926;2022-09-01T09:59:49;23.90;96.50
70267;DHT22;57676;43.856;1.926;2022-09-01T10:02:40;24.00;95.90
70267;DHT22;57676;43.856;1.926;2022-09-01T10:08:37;24.20;95.50
70267;DHT22;57676;43.856;1.926;2022-09-01T10:11:04;24.20;95.20
70267;DHT22;57676;43.856;1.926;2022-09-01T10:13:31;24.30;95.00
70267;DHT22;57676;43.856;1.926;2022-09-01T10:16:02;24.30;95.00
70267;DHT22;57676;43.856;1.926;2022-09-01T10:18:34;23.80;95.10
70267;DHT22;57676;43.856;1.926;2022-09-01T10:23:50;24.50;94.40
70267;DHT22;57676;43.856;1.926;2022-09-01T10:26:23;24.60;94.10
70267;DHT22;57676;43.856;1.926;2022-09-01T10:29:00;24.60;93.90
70267;DHT22;57676;43.856;1.926;2022-09-01T10:31:27;24.60;93.70
70267;DHT22;57676;43.856;1.926;2022-09-01T10:33:54;24.80;93.60
70267;DHT22;57676;43.856;1.926;2022-09-01T10:36:21;24.80;93.30
70267;DHT22;57676;43.856;1.926;2022-09-01T10:38:47;24.80;93.30
70267;DHT22;57676;43.856;1.926;2022-09-01T10:44:26;25.20;92.70
70267;DHT22;57676;43.856;1.926;2022-09-01T10:46:57;25.40;92.30
70267;DHT22;57676;43.856;1.926;2022-09-01T10:52:51;25.90;91.40
70267;DHT22;57676;43.856;1.926;2022-09-01T10:55:22;26.00;91.00
70267;DHT22;57676;43.856;1.926;2022-09-01T10:58:01;26.10;90.90
70267;DHT22;57676;43.856;1.926;2022-09-01T11:00:44;26.20;90.60
70267;DHT22;57676;43.856;1.926;2022-09-01T11:03:32;26.10;90.20
70267;DHT22;57676;43.856;1.926;2022-09-01T11:06:02;26.10;90.20
70267;DHT22;57676;43.856;1.926;2022-09-01T11:08:55;26.00;90.20
70267;DHT22;57676;43.856;1.926;2022-09-01T11:11:46;26.10;90.10
70267;DHT22;57676;43.856;1.926;2022-09-01T11:14:19;26.00;90.00
70267;DHT22;57676;43.856;1.926;2022-09-01T11:17:11;26.10;89.40
70267;DHT22;57676;43.856;1.926;2022-09-01T11:19:43;26.20;89.30
70267;DHT22;57676;43.856;1.926;2022-09-01T11:22:36;26.20;89.10
70267;DHT22;57676;43.856;1.926;2022-09-01T11:25:10;26.10;89.30
70267;DHT22;57676;43.856;1.926;2022-09-01T11:27:57;26.10;89.20
70267;DHT22;57676;43.856;1.926;2022-09-01T11:30:46;26.00;89.30
70267;DHT22;57676;43.856;1.926;2022-09-01T11:36:19;25.70;90.10
70267;DHT22;57676;43.856;1.926;2022-09-01T11:38:53;25.70;90.00
70267;DHT22;57676;43.856;1.926;2022-09-01T11:41:29;25.80;89.80
70267;DHT22;57676;43.856;1.926;2022-09-01T11:43:59;26.30;89.60
70267;DHT22;57676;43.856;1.926;2022-09-01T11:46:30;26.50;87.90
70267;DHT22;57676;43.856;1.926;2022-09-01T11:49:06;26.70;87.10
70267;DHT22;57676;43.856;1.926;2022-09-01T11:51:53;26.60;86.70
70267;DHT22;57676;43.856;1.926;2022-09-01T11:54:19;26.50;86.90
70267;DHT22;57676;43.856;1.926;2022-09-01T11:56:45;26.40;87.10
70267;DHT22;57676;43.856;1.926;2022-09-01T11:59:11;26.50;87.50
70267;DHT22;57676;43.856;1.926;2022-09-01T12:01:38;26.40;86.40
70267;DHT22;57676;43.856;1.926;2022-09-01T12:04:25;26.30;87.20
70267;DHT22;57676;43.856;1.926;2022-09-01T12:06:58;26.40;86.70
70267;DHT22;57676;43.856;1.926;2022-09-01T12:09:45;26.40;86.80
70267;DHT22;57676;43.856;1.926;2022-09-01T12:12:35;26.40;86.40
70267;DHT22;57676;43.856;1.926;2022-09-01T12:15:09;26.80;85.40
70267;DHT22;57676;43.856;1.926;2022-09-01T12:17:36;27.10;84.70
70267;DHT22;57676;43.856;1.926;2022-09-01T12:23:29;27.40;83.40
70267;DHT22;57676;43.856;1.926;2022-09-01T12:25:58;27.40;83.40
70267;DHT22;57676;43.856;1.926;2022-09-01T12:28:28;27.50;83.20
70267;DHT22;57676;43.856;1.926;2022-09-01T12:30:56;27.70;83.00
70267;DHT22;57676;43.856;1.926;2022-09-01T12:33:23;27.90;83.00
70267;DHT22;57676;43.856;1.926;2022-09-01T12:35:50;28.00;81.10
70267;DHT22;57676;43.856;1.926;2022-09-01T12:38:24;27.90;81.10
70267;DHT22;57676;43.856;1.926;2022-09-01T12:40:54;27.90;80.80
70267;DHT22;57676;43.856;1.926;2022-09-01T12:43:40;27.80;80.30
70267;DHT22;57676;43.856;1.926;2022-09-01T12:46:07;27.80;80.50
70267;DHT22;57676;43.856;1.926;2022-09-01T12:48:37;27.70;80.20
70267;DHT22;57676;43.856;1.926;2022-09-01T12:51:15;27.80;79.50
70267;DHT22;57676;43.856;1.926;2022-09-01T12:53:53;27.70;79.80
70267;DHT22;57676;43.856;1.926;2022-09-01T12:59:13;27.70;79.80
70267;DHT22;57676;43.856;1.926;2022-09-01T13:01:40;27.50;80.20
70267;DHT22;57676;43.856;1.926;2022-09-01T13:04:27;27.90;79.70
70267;DHT22;57676;43.856;1.926;2022-09-01T13:06:59;28.10;79.30
70267;DHT22;57676;43.856;1.926;2022-09-01T13:09:25;28.10;78.60
70267;DHT22;57676;43.856;1.926;2022-09-01T13:11:51;28.20;78.30
70267;DHT22;57676;43.856;1.926;2022-09-01T13:14:16;28.20;78.20
70267;DHT22;57676;43.856;1.926;2022-09-01T13:16:44;28.40;77.90
70267;DHT22;57676;43.856;1.926;2022-09-01T13:19:10;28.50;77.70
70267;DHT22;57676;43.856;1.926;2022-09-01T13:21:45;28.50;77.30
70267;DHT22;57676;43.856;1.926;2022-09-01T13:24:12;28.70;77.30
70267;DHT22;57676;43.856;1.926;2022-09-01T13:26:41;28.90;76.40
70267;DHT22;57676;43.856;1.926;2022-09-01T13:29:10;29.00;76.80
70267;DHT22;57676;43.856;1.926;2022-09-01T13:31:36;29.20;75.60
70267;DHT22;57676;43.856;1.926;2022-09-01T13:34:02;28.90;75.50
70267;DHT22;57676;43.856;1.926;2022-09-01T13:36:28;28.90;76.00
70267;DHT22;57676;43.856;1.926;2022-09-01T13:38:54;28.90;76.10
70267;DHT22;57676;43.856;1.926;2022-09-01T13:41:20;28.80;75.10
70267;DHT22;57676;43.856;1.926;2022-09-01T13:43:46;28.80;75.60
70267;DHT22;57676;43.856;1.926;2022-09-01T13:46:12;29.00;75.20
70267;DHT22;57676;43.856;1.926;2022-09-01T13:48:38;28.90;74.40
70267;DHT22;57676;43.856;1.926;2022-09-01T13:51:03;28.90;75.10
70267;DHT22;57676;43.856;1.926;2022-09-01T13:53:29;28.70;74.30
70267;DHT22;57676;43.856;1.926;2022-09-01T13:55:55;28.30;75.30
70267;DHT22;57676;43.856;1.926;2022-09-01T13:58:21;28.40;76.00
70267;DHT22;57676;43.856;1.926;2022-09-01T14:00:47;28.70;75.50
70267;DHT22;57676;43.856;1.926;2022-09-01T14:03:18;28.90;75.00
70267;DHT22;57676;43.856;1.926;2022-09-01T14:05:46;28.90;74.20
70267;DHT22;57676;43.856;1.926;2022-09-01T14:08:14;28.70;74.10
70267;DHT22;57676;43.856;1.926;2022-09-01T14:10:46;28.80;74.70
70267;DHT22;57676;43.856;1.926;2022-09-01T14:13:13;28.90;74.30
70267;DHT22;57676;43.856;1.926;2022-09-01T14:15:40;29.00;74.00
70267;DHT22;57676;43.856;1.926;2022-09-01T14:18:06;29.10;73.40
70267;DHT22;57676;43.856;1.926;2022-09-01T14:20:35;29.20;73.70
70267;DHT22;57676;43.856;1.926;2022-09-01T14:23:04;29.30;73.70
70267;DHT22;57676;43.856;1.926;2022-09-01T14:25:31;29.30;73.10
70267;DHT22;57676;43.856;1.926;2022-09-01T14:27:59;29.30;73.10
70267;DHT22;57676;43.856;1.926;2022-09-01T14:30:28;29.40;72.90
70267;DHT22;57676;43.856;1.926;2022-09-01T14:32:54;29.30;72.40
70267;DHT22;57676;43.856;1.926;2022-09-01T14:35:21;29.20;72.40
70267;DHT22;57676;43.856;1.926;2022-09-01T14:37:49;29.10;72.60
70267;DHT22;57676;43.856;1.926;2022-09-01T14:40:16;29.10;72.40
70267;DHT22;57676;43.856;1.926;2022-09-01T14:42:43;29.30;72.10
70267;DHT22;57676;43.856;1.926;2022-09-01T14:45:11;29.40;71.50
70267;DHT22;57676;43.856;1.926;2022-09-01T14:47:40;29.50;70.80
70267;DHT22;57676;43.856;1.926;2022-09-01T14:50:06;29.30;70.50
70267;DHT22;57676;43.856;1.926;2022-09-01T14:52:32;29.30;70.40
70267;DHT22;57676;43.856;1.926;2022-09-01T14:54:58;29.40;70.30
70267;DHT22;57676;43.856;1.926;2022-09-01T14:57:24;29.20;70.40
70267;DHT22;57676;43.856;1.926;2022-09-01T14:59:49;29.10;70.70
70267;DHT22;57676;43.856;1.926;2022-09-01T15:02:15;29.20;70.60
70267;DHT22;57676;43.856;1.926;2022-09-01T15:04:41;29.30;70.40
70267;DHT22;57676;43.856;1.926;2022-09-01T15:07:07;29.20;69.90
70267;DHT22;57676;43.856;1.926;2022-09-01T15:09:34;29.20;70.20
70267;DHT22;57676;43.856;1.926;2022-09-01T15:15:02;29.40;68.90
70267;DHT22;57676;43.856;1.926;2022-09-01T15:17:28;29.40;68.70
70267;DHT22;57676;43.856;1.926;2022-09-01T15:19:54;29.40;68.40
70267;DHT22;57676;43.856;1.926;2022-09-01T15:22:20;29.40;68.10
70267;DHT22;57676;43.856;1.926;2022-09-01T15:24:46;29.40;68.00
70267;DHT22;57676;43.856;1.926;2022-09-01T15:27:12;29.50;67.80
70267;DHT22;57676;43.856;1.926;2022-09-01T15:29:38;29.50;67.60
70267;DHT22;57676;43.856;1.926;2022-09-01T15:32:24;29.60;67.10
70267;DHT22;57676;43.856;1.926;2022-09-01T15:34:50;29.70;67.50
70267;DHT22;57676;43.856;1.926;2022-09-01T15:37:15;29.70;67.50
70267;DHT22;57676;43.856;1.926;2022-09-01T15:39:41;29.70;67.30
70267;DHT22;57676;43.856;1.926;2022-09-01T15:42:07;29.70;67.80
70267;DHT22;57676;43.856;1.926;2022-09-01T15:44:33;29.60;67.50
70267;DHT22;57676;43.856;1.926;2022-09-01T15:47:00;29.50;66.70
70267;DHT22;57676;43.856;1.926;2022-09-01T15:49:25;29.50;66.80
70267;DHT22;57676;43.856;1.926;2022-09-01T15:51:55;29.40;66.30
70267;DHT22;57676;43.856;1.926;2022-09-01T15:54:21;29.40;66.80
70267;DHT22;57676;43.856;1.926;2022-09-01T15:56:47;29.40;65.90
70267;DHT22;57676;43.856;1.926;2022-09-01T15:59:13;29.40;66.00
70267;DHT22;57676;43.856;1.926;2022-09-01T16:01:42;29.40;65.70
70267;DHT22;57676;43.856;1.926;2022-09-01T16:04:11;29.40;66.20
70267;DHT22;57676;43.856;1.926;2022-09-01T16:06:39;29.50;66.40
70267;DHT22;57676;43.856;1.926;2022-09-01T16:09:07;29.60;66.50
70267;DHT22;57676;43.856;1.926;2022-09-01T16:11:34;29.70;66.20
70267;DHT22;57676;43.856;1.926;2022-09-01T16:14:02;29.70;65.70
70267;DHT22;57676;43.856;1.926;2022-09-01T16:16:50;29.60;65.90
70267;DHT22;57676;43.856;1.926;2022-09-01T16:19:40;29.50;65.50
70267;DHT22;57676;43.856;1.926;2022-09-01T16:22:33;29.40;66.50